sensor_id;sensor_type;location;lat;lon;timestamp;P1;durP1;ratioP1;P2;durP2;ratioP2
22005;SDS011;11167;46.988;15.470;2022-11-15T00:00:28;34.50;;;25.90;;
22005;SDS011;11167;46.988;15.470;2022-11-15T00:02:29;34.90;;;26.30;;
22005;SDS011;11167;46.988;15.470;2022-11-15T00:04:30;35.20;;;26.02;;
22005;SDS011;11167;46.988;15.470;2022-11-15T00:06:32;33.25;;;25.43;;
22005;SDS011;11167;46.988;15.470;2022-11-15T00:08:33;36.53;;;26.52;;
22005;SDS011;11167;46.988;15.470;2022-11-15T00:10:34;35.88;;;25.75;;
22005;SDS011;11167;46.988;15.470;2022-11-15T00:12:36;36.00;;;26.33;;
22005;SDS011;11167;46.988;15.470;2022-11-15T00:14:37;33.92;;;26.20;;
22005;SDS011;11167;46.988;15.470;2022-11-15T00:16:38;36.68;;;26.15;;
22005;SDS011;11167;46.988;15.470;2022-11-15T00:18:39;34.50;;;25.25;;
22005;SDS011;11167;46.988;15.470;2022-11-15T00:20:41;34.03;;;24.52;;
22005;SDS011;11167;46.988;15.470;2022-11-15T00:22:43;37.05;;;26.27;;
22005;SDS011;11167;46.988;15.470;2022-11-15T00:24:44;35.08;;;25.27;;
22005;SDS011;11167;46.988;15.470;2022-11-15T00:26:45;35.43;;;25.57;;
22005;SDS011;11167;46.988;15.470;2022-11-15T00:28:46;34.13;;;25.43;;
22005;SDS011;11167;46.988;15.470;2022-11-15T00:30:48;33.88;;;25.62;;
22005;SDS011;11167;46.988;15.470;2022-11-15T00:32:49;34.98;;;25.82;;
22005;SDS011;11167;46.988;15.470;2022-11-15T00:34:50;35.15;;;26.15;;
22005;SDS011;11167;46.988;15.470;2022-11-15T00:36:51;33.18;;;25.08;;
22005;SDS011;11167;46.988;15.470;2022-11-15T00:38:53;34.50;;;25.37;;
22005;SDS011;11167;46.988;15.470;2022-11-15T00:40:54;36.10;;;26.75;;
22005;SDS011;11167;46.988;15.470;2022-11-15T00:42:55;36.25;;;26.60;;
22005;SDS011;11167;46.988;15.470;2022-11-15T00:44:56;36.15;;;26.93;;
22005;SDS011;11167;46.988;15.470;2022-11-15T00:46:57;35.90;;;26.75;;
22005;SDS011;11167;46.988;15.470;2022-11-15T00:48:59;38.38;;;27.32;;
22005;SDS011;11167;46.988;15.470;2022-11-15T00:51:00;37.98;;;27.27;;
22005;SDS011;11167;46.988;15.470;2022-11-15T00:53:01;36.83;;;26.90;;
22005;SDS011;11167;46.988;15.470;2022-11-15T00:55:02;37.83;;;27.07;;
22005;SDS011;11167;46.988;15.470;2022-11-15T00:57:03;37.40;;;26.65;;
22005;SDS011;11167;46.988;15.470;2022-11-15T00:59:05;38.25;;;27.50;;
22005;SDS011;11167;46.988;15.470;2022-11-15T01:01:07;35.68;;;25.57;;
22005;SDS011;11167;46.988;15.470;2022-11-15T01:03:09;37.05;;;26.80;;
22005;SDS011;11167;46.988;15.470;2022-11-15T01:05:11;37.55;;;26.85;;
22005;SDS011;11167;46.988;15.470;2022-11-15T01:07:12;38.42;;;27.35;;
22005;SDS011;11167;46.988;15.470;2022-11-15T01:09:13;36.88;;;26.87;;
22005;SDS011;11167;46.988;15.470;2022-11-15T01:11:14;37.13;;;26.82;;
22005;SDS011;11167;46.988;15.470;2022-11-15T01:13:15;35.50;;;25.68;;
22005;SDS011;11167;46.988;15.470;2022-11-15T01:15:17;37.90;;;26.57;;
22005;SDS011;11167;46.988;15.470;2022-11-15T01:17:18;40.33;;;27.52;;
22005;SDS011;11167;46.988;15.470;2022-11-15T01:19:19;35.88;;;25.80;;
22005;SDS011;11167;46.988;15.470;2022-11-15T01:21:20;39.03;;;27.58;;
22005;SDS011;11167;46.988;15.470;2022-11-15T01:23:22;36.88;;;26.73;;
22005;SDS011;11167;46.988;15.470;2022-11-15T01:25:23;39.15;;;26.65;;
22005;SDS011;11167;46.988;15.470;2022-11-15T01:27:24;41.42;;;27.80;;
22005;SDS011;11167;46.988;15.470;2022-11-15T01:29:25;40.48;;;28.52;;
22005;SDS011;11167;46.988;15.470;2022-11-15T01:31:26;40.20;;;27.85;;
22005;SDS011;11167;46.988;15.470;2022-11-15T01:33:28;39.20;;;27.62;;
22005;SDS011;11167;46.988;15.470;2022-11-15T01:35:29;37.40;;;27.25;;
22005;SDS011;11167;46.988;15.470;2022-11-15T01:37:30;39.35;;;27.58;;
22005;SDS011;11167;46.988;15.470;2022-11-15T01:39:33;42.50;;;28.25;;
22005;SDS011;11167;46.988;15.470;2022-11-15T01:41:34;41.53;;;29.72;;
22005;SDS011;11167;46.988;15.470;2022-11-15T01:43:36;44.77;;;29.42;;
22005;SDS011;11167;46.988;15.470;2022-11-15T01:45:37;44.55;;;30.35;;
22005;SDS011;11167;46.988;15.470;2022-11-15T01:47:40;45.38;;;31.25;;
22005;SDS011;11167;46.988;15.470;2022-11-15T01:49:47;43.63;;;29.80;;
22005;SDS011;11167;46.988;15.470;2022-11-15T01:51:48;44.58;;;30.72;;
22005;SDS011;11167;46.988;15.470;2022-11-15T01:53:50;44.75;;;29.72;;
22005;SDS011;11167;46.988;15.470;2022-11-15T01:55:54;44.58;;;30.20;;
22005;SDS011;11167;46.988;15.470;2022-11-15T01:57:58;38.35;;;27.67;;
22005;SDS011;11167;46.988;15.470;2022-11-15T02:00:01;42.85;;;29.55;;
22005;SDS011;11167;46.988;15.470;2022-11-15T02:02:04;43.30;;;29.85;;
22005;SDS011;11167;46.988;15.470;2022-11-15T02:04:13;43.42;;;29.90;;
22005;SDS011;11167;46.988;15.470;2022-11-15T02:06:17;43.73;;;30.12;;
22005;SDS011;11167;46.988;15.470;2022-11-15T02:08:19;44.23;;;30.10;;
22005;SDS011;11167;46.988;15.470;2022-11-15T02:10:23;44.35;;;30.32;;
22005;SDS011;11167;46.988;15.470;2022-11-15T02:12:25;47.95;;;31.33;;
22005;SDS011;11167;46.988;15.470;2022-11-15T02:14:26;46.42;;;31.90;;
22005;SDS011;11167;46.988;15.470;2022-11-15T02:21:27;45.65;;;30.27;;
22005;SDS011;11167;46.988;15.470;2022-11-15T02:23:31;43.35;;;29.95;;
22005;SDS011;11167;46.988;15.470;2022-11-15T02:32:20;42.80;;;28.52;;
22005;SDS011;11167;46.988;15.470;2022-11-15T02:36:36;40.17;;;28.32;;
22005;SDS011;11167;46.988;15.470;2022-11-15T02:41:06;40.73;;;27.62;;
22005;SDS011;11167;46.988;15.470;2022-11-15T02:43:12;38.38;;;27.90;;
22005;SDS011;11167;46.988;15.470;2022-11-15T02:45:36;37.05;;;26.12;;
22005;SDS011;11167;46.988;15.470;2022-11-15T02:47:45;39.70;;;26.75;;
22005;SDS011;11167;46.988;15.470;2022-11-15T02:49:48;38.85;;;26.80;;
22005;SDS011;11167;46.988;15.470;2022-11-15T02:51:55;39.03;;;26.70;;
22005;SDS011;11167;46.988;15.470;2022-11-15T02:53:56;39.50;;;27.00;;
22005;SDS011;11167;46.988;15.470;2022-11-15T02:55:59;40.05;;;28.42;;
22005;SDS011;11167;46.988;15.470;2022-11-15T03:00:20;43.45;;;28.52;;
22005;SDS011;11167;46.988;15.470;2022-11-15T03:04:52;38.05;;;26.07;;
22005;SDS011;11167;46.988;15.470;2022-11-15T03:07:01;36.77;;;26.55;;
22005;SDS011;11167;46.988;15.470;2022-11-15T03:09:16;40.52;;;27.02;;
22005;SDS011;11167;46.988;15.470;2022-11-15T03:11:21;36.93;;;25.72;;
22005;SDS011;11167;46.988;15.470;2022-11-15T03:13:27;35.23;;;25.25;;
22005;SDS011;11167;46.988;15.470;2022-11-15T03:15:38;38.15;;;26.33;;
22005;SDS011;11167;46.988;15.470;2022-11-15T03:17:49;33.85;;;24.20;;
22005;SDS011;11167;46.988;15.470;2022-11-15T03:19:59;37.45;;;26.15;;
22005;SDS011;11167;46.988;15.470;2022-11-15T03:22:04;35.52;;;24.47;;
22005;SDS011;11167;46.988;15.470;2022-11-15T03:24:08;35.70;;;25.32;;
22005;SDS011;11167;46.988;15.470;2022-11-15T03:26:12;33.42;;;24.47;;
22005;SDS011;11167;46.988;15.470;2022-11-15T03:28:23;33.78;;;24.92;;
22005;SDS011;11167;46.988;15.470;2022-11-15T03:30:30;35.00;;;24.75;;
22005;SDS011;11167;46.988;15.470;2022-11-15T03:32:35;35.78;;;24.87;;
22005;SDS011;11167;46.988;15.470;2022-11-15T03:36:47;38.33;;;25.27;;
22005;SDS011;11167;46.988;15.470;2022-11-15T03:38:53;37.73;;;25.85;;
22005;SDS011;11167;46.988;15.470;2022-11-15T03:40:59;35.95;;;24.37;;
22005;SDS011;11167;46.988;15.470;2022-11-15T03:45:15;36.95;;;25.37;;
22005;SDS011;11167;46.988;15.470;2022-11-15T03:49:49;39.20;;;25.90;;
22005;SDS011;11167;46.988;15.470;2022-11-15T03:51:56;40.17;;;26.73;;
22005;SDS011;11167;46.988;15.470;2022-11-15T03:53:58;36.00;;;25.88;;
22005;SDS011;11167;46.988;15.470;2022-11-15T03:55:59;41.28;;;27.37;;
22005;SDS011;11167;46.988;15.470;2022-11-15T03:58:00;39.40;;;26.60;;
22005;SDS011;11167;46.988;15.470;2022-11-15T04:00:03;38.23;;;26.48;;
22005;SDS011;11167;46.988;15.470;2022-11-15T04:02:04;34.20;;;25.37;;
22005;SDS011;11167;46.988;15.470;2022-11-15T04:04:06;36.80;;;25.80;;
22005;SDS011;11167;46.988;15.470;2022-11-15T04:06:07;35.35;;;25.02;;
22005;SDS011;11167;46.988;15.470;2022-11-15T04:08:08;37.20;;;24.75;;
22005;SDS011;11167;46.988;15.470;2022-11-15T04:10:12;35.48;;;24.72;;
22005;SDS011;11167;46.988;15.470;2022-11-15T04:12:13;37.10;;;24.90;;
22005;SDS011;11167;46.988;15.470;2022-11-15T04:14:16;36.63;;;24.95;;
22005;SDS011;11167;46.988;15.470;2022-11-15T04:16:19;36.25;;;25.25;;
22005;SDS011;11167;46.988;15.470;2022-11-15T04:18:23;34.75;;;24.05;;
22005;SDS011;11167;46.988;15.470;2022-11-15T04:20:29;33.75;;;24.07;;
22005;SDS011;11167;46.988;15.470;2022-11-15T04:22:47;34.58;;;24.12;;
22005;SDS011;11167;46.988;15.470;2022-11-15T04:25:06;32.50;;;23.30;;
22005;SDS011;11167;46.988;15.470;2022-11-15T04:27:07;33.70;;;24.52;;
22005;SDS011;11167;46.988;15.470;2022-11-15T04:29:08;33.98;;;23.45;;
22005;SDS011;11167;46.988;15.470;2022-11-15T04:31:28;34.53;;;24.07;;
22005;SDS011;11167;46.988;15.470;2022-11-15T04:33:29;34.05;;;23.75;;
22005;SDS011;11167;46.988;15.470;2022-11-15T04:35:30;35.58;;;24.63;;
22005;SDS011;11167;46.988;15.470;2022-11-15T04:37:32;35.30;;;25.15;;
22005;SDS011;11167;46.988;15.470;2022-11-15T04:39:33;35.85;;;25.32;;
22005;SDS011;11167;46.988;15.470;2022-11-15T04:41:34;35.45;;;25.00;;
22005;SDS011;11167;46.988;15.470;2022-11-15T04:43:35;36.00;;;25.08;;
22005;SDS011;11167;46.988;15.470;2022-11-15T04:45:36;34.80;;;24.15;;
22005;SDS011;11167;46.988;15.470;2022-11-15T04:47:38;36.00;;;24.75;;
22005;SDS011;11167;46.988;15.470;2022-11-15T04:49:39;34.18;;;24.02;;
22005;SDS011;11167;46.988;15.470;2022-11-15T04:51:40;33.98;;;24.30;;
22005;SDS011;11167;46.988;15.470;2022-11-15T04:53:41;33.40;;;23.55;;
22005;SDS011;11167;46.988;15.470;2022-11-15T04:55:45;33.65;;;23.85;;
22005;SDS011;11167;46.988;15.470;2022-11-15T04:57:47;33.55;;;23.50;;
22005;SDS011;11167;46.988;15.470;2022-11-15T04:59:48;32.60;;;23.00;;
22005;SDS011;11167;46.988;15.470;2022-11-15T05:01:49;31.57;;;22.60;;
22005;SDS011;11167;46.988;15.470;2022-11-15T05:03:51;31.62;;;23.27;;
22005;SDS011;11167;46.988;15.470;2022-11-15T05:06:17;31.93;;;23.27;;
22005;SDS011;11167;46.988;15.470;2022-11-15T05:08:18;32.58;;;22.45;;
22005;SDS011;11167;46.988;15.470;2022-11-15T05:10:19;30.35;;;21.97;;
22005;SDS011;11167;46.988;15.470;2022-11-15T05:12:20;31.65;;;22.55;;
22005;SDS011;11167;46.988;15.470;2022-11-15T05:14:21;31.57;;;23.27;;
22005;SDS011;11167;46.988;15.470;2022-11-15T05:16:24;32.03;;;22.85;;
22005;SDS011;11167;46.988;15.470;2022-11-15T05:18:25;32.90;;;23.42;;
22005;SDS011;11167;46.988;15.470;2022-11-15T05:20:27;32.40;;;23.25;;
22005;SDS011;11167;46.988;15.470;2022-11-15T05:22:28;32.45;;;23.27;;
22005;SDS011;11167;46.988;15.470;2022-11-15T05:24:29;32.65;;;22.85;;
22005;SDS011;11167;46.988;15.470;2022-11-15T05:26:32;32.93;;;23.62;;
22005;SDS011;11167;46.988;15.470;2022-11-15T05:28:35;32.55;;;23.07;;
22005;SDS011;11167;46.988;15.470;2022-11-15T05:33:02;33.35;;;23.57;;
22005;SDS011;11167;46.988;15.470;2022-11-15T05:35:04;34.98;;;23.77;;
22005;SDS011;11167;46.988;15.470;2022-11-15T05:37:09;33.40;;;23.25;;
22005;SDS011;11167;46.988;15.470;2022-11-15T05:39:10;33.50;;;23.55;;
22005;SDS011;11167;46.988;15.470;2022-11-15T05:41:12;36.83;;;25.37;;
22005;SDS011;11167;46.988;15.470;2022-11-15T05:43:14;34.80;;;24.05;;
22005;SDS011;11167;46.988;15.470;2022-11-15T05:45:15;36.23;;;24.18;;
22005;SDS011;11167;46.988;15.470;2022-11-15T05:47:19;33.98;;;23.15;;
22005;SDS011;11167;46.988;15.470;2022-11-15T05:49:26;33.88;;;23.20;;
22005;SDS011;11167;46.988;15.470;2022-11-15T05:51:30;35.85;;;25.00;;
22005;SDS011;11167;46.988;15.470;2022-11-15T05:53:33;36.53;;;23.47;;
22005;SDS011;11167;46.988;15.470;2022-11-15T05:55:37;31.97;;;23.10;;
22005;SDS011;11167;46.988;15.470;2022-11-15T05:57:39;32.70;;;23.45;;
22005;SDS011;11167;46.988;15.470;2022-11-15T05:59:41;34.48;;;22.90;;
22005;SDS011;11167;46.988;15.470;2022-11-15T06:01:43;33.30;;;23.52;;
22005;SDS011;11167;46.988;15.470;2022-11-15T06:03:45;34.18;;;23.67;;
22005;SDS011;11167;46.988;15.470;2022-11-15T06:05:46;32.25;;;23.47;;
22005;SDS011;11167;46.988;15.470;2022-11-15T06:07:47;33.33;;;23.18;;
22005;SDS011;11167;46.988;15.470;2022-11-15T06:09:48;34.58;;;23.38;;
22005;SDS011;11167;46.988;15.470;2022-11-15T06:11:49;32.98;;;24.05;;
22005;SDS011;11167;46.988;15.470;2022-11-15T06:13:50;32.93;;;23.40;;
22005;SDS011;11167;46.988;15.470;2022-11-15T06:15:54;32.15;;;23.27;;
22005;SDS011;11167;46.988;15.470;2022-11-15T06:17:56;33.73;;;23.80;;
22005;SDS011;11167;46.988;15.470;2022-11-15T06:19:58;32.50;;;23.40;;
22005;SDS011;11167;46.988;15.470;2022-11-15T06:21:59;32.13;;;22.73;;
22005;SDS011;11167;46.988;15.470;2022-11-15T06:24:00;31.33;;;22.87;;
22005;SDS011;11167;46.988;15.470;2022-11-15T06:26:02;31.57;;;22.73;;
22005;SDS011;11167;46.988;15.470;2022-11-15T06:28:03;32.15;;;22.35;;
22005;SDS011;11167;46.988;15.470;2022-11-15T06:30:05;32.63;;;23.40;;
22005;SDS011;11167;46.988;15.470;2022-11-15T06:32:07;29.02;;;22.30;;
22005;SDS011;11167;46.988;15.470;2022-11-15T06:34:08;28.30;;;21.40;;
22005;SDS011;11167;46.988;15.470;2022-11-15T06:36:11;30.68;;;21.02;;
22005;SDS011;11167;46.988;15.470;2022-11-15T06:38:15;29.63;;;21.60;;
22005;SDS011;11167;46.988;15.470;2022-11-15T06:40:16;27.32;;;20.70;;
22005;SDS011;11167;46.988;15.470;2022-11-15T06:42:17;26.82;;;20.27;;
22005;SDS011;11167;46.988;15.470;2022-11-15T06:44:18;24.87;;;19.00;;
22005;SDS011;11167;46.988;15.470;2022-11-15T06:46:19;26.80;;;19.82;;
22005;SDS011;11167;46.988;15.470;2022-11-15T06:48:20;27.35;;;19.42;;
22005;SDS011;11167;46.988;15.470;2022-11-15T06:50:22;24.75;;;18.95;;
22005;SDS011;11167;46.988;15.470;2022-11-15T06:52:23;24.57;;;17.95;;
22005;SDS011;11167;46.988;15.470;2022-11-15T06:54:24;24.52;;;18.65;;
22005;SDS011;11167;46.988;15.470;2022-11-15T06:56:25;23.35;;;17.55;;
22005;SDS011;11167;46.988;15.470;2022-11-15T06:58:27;23.87;;;18.55;;
22005;SDS011;11167;46.988;15.470;2022-11-15T07:00:29;21.90;;;17.12;;
22005;SDS011;11167;46.988;15.470;2022-11-15T07:02:31;22.17;;;17.30;;
22005;SDS011;11167;46.988;15.470;2022-11-15T07:04:32;23.10;;;17.27;;
22005;SDS011;11167;46.988;15.470;2022-11-15T07:06:35;24.72;;;18.00;;
22005;SDS011;11167;46.988;15.470;2022-11-15T07:08:37;22.65;;;17.37;;
22005;SDS011;11167;46.988;15.470;2022-11-15T07:10:38;25.20;;;18.07;;
22005;SDS011;11167;46.988;15.470;2022-11-15T07:12:40;22.17;;;16.97;;
22005;SDS011;11167;46.988;15.470;2022-11-15T07:14:41;22.27;;;17.10;;
22005;SDS011;11167;46.988;15.470;2022-11-15T07:16:42;24.02;;;17.48;;
22005;SDS011;11167;46.988;15.470;2022-11-15T07:18:43;24.12;;;17.32;;
22005;SDS011;11167;46.988;15.470;2022-11-15T07:20:44;23.25;;;16.82;;
22005;SDS011;11167;46.988;15.470;2022-11-15T07:22:45;21.30;;;16.02;;
22005;SDS011;11167;46.988;15.470;2022-11-15T07:24:46;21.60;;;16.35;;
22005;SDS011;11167;46.988;15.470;2022-11-15T07:26:47;21.70;;;16.02;;
22005;SDS011;11167;46.988;15.470;2022-11-15T07:28:49;22.95;;;16.90;;
22005;SDS011;11167;46.988;15.470;2022-11-15T07:30:50;21.87;;;16.80;;
22005;SDS011;11167;46.988;15.470;2022-11-15T07:32:57;20.85;;;16.35;;
22005;SDS011;11167;46.988;15.470;2022-11-15T07:35:00;22.32;;;16.25;;
22005;SDS011;11167;46.988;15.470;2022-11-15T07:37:01;22.52;;;16.30;;
22005;SDS011;11167;46.988;15.470;2022-11-15T07:39:02;21.80;;;16.45;;
22005;SDS011;11167;46.988;15.470;2022-11-15T07:41:03;25.10;;;17.98;;
22005;SDS011;11167;46.988;15.470;2022-11-15T07:43:06;21.45;;;16.60;;
22005;SDS011;11167;46.988;15.470;2022-11-15T07:45:08;21.97;;;16.90;;
22005;SDS011;11167;46.988;15.470;2022-11-15T07:47:10;23.47;;;17.90;;
22005;SDS011;11167;46.988;15.470;2022-11-15T07:49:11;24.30;;;18.37;;
22005;SDS011;11167;46.988;15.470;2022-11-15T07:51:12;26.80;;;18.70;;
22005;SDS011;11167;46.988;15.470;2022-11-15T07:53:17;23.92;;;17.67;;
22005;SDS011;11167;46.988;15.470;2022-11-15T07:55:18;22.82;;;18.32;;
22005;SDS011;11167;46.988;15.470;2022-11-15T07:57:19;24.18;;;18.20;;
22005;SDS011;11167;46.988;15.470;2022-11-15T07:59:20;23.55;;;16.75;;
22005;SDS011;11167;46.988;15.470;2022-11-15T08:01:22;24.52;;;17.98;;
22005;SDS011;11167;46.988;15.470;2022-11-15T08:03:23;25.15;;;17.85;;
22005;SDS011;11167;46.988;15.470;2022-11-15T08:05:24;23.02;;;16.93;;
22005;SDS011;11167;46.988;15.470;2022-11-15T08:07:27;24.35;;;17.67;;
22005;SDS011;11167;46.988;15.470;2022-11-15T08:09:32;25.65;;;18.15;;
22005;SDS011;11167;46.988;15.470;2022-11-15T08:11:33;26.05;;;18.62;;
22005;SDS011;11167;46.988;15.470;2022-11-15T08:13:34;24.72;;;18.10;;
22005;SDS011;11167;46.988;15.470;2022-11-15T08:15:36;26.37;;;18.87;;
22005;SDS011;11167;46.988;15.470;2022-11-15T08:17:38;26.12;;;18.67;;
22005;SDS011;11167;46.988;15.470;2022-11-15T08:19:39;26.30;;;19.73;;
22005;SDS011;11167;46.988;15.470;2022-11-15T08:21:40;24.15;;;18.48;;
22005;SDS011;11167;46.988;15.470;2022-11-15T08:23:41;25.85;;;18.77;;
22005;SDS011;11167;46.988;15.470;2022-11-15T08:25:42;24.43;;;18.07;;
22005;SDS011;11167;46.988;15.470;2022-11-15T08:27:44;25.62;;;18.48;;
22005;SDS011;11167;46.988;15.470;2022-11-15T08:29:45;24.40;;;18.27;;
22005;SDS011;11167;46.988;15.470;2022-11-15T08:31:48;25.12;;;18.12;;
22005;SDS011;11167;46.988;15.470;2022-11-15T08:33:49;25.77;;;18.17;;
22005;SDS011;11167;46.988;15.470;2022-11-15T08:35:50;23.57;;;17.77;;
22005;SDS011;11167;46.988;15.470;2022-11-15T08:37:54;22.45;;;17.32;;
22005;SDS011;11167;46.988;15.470;2022-11-15T08:39:56;23.60;;;17.92;;
22005;SDS011;11167;46.988;15.470;2022-11-15T08:41:57;26.55;;;18.52;;
22005;SDS011;11167;46.988;15.470;2022-11-15T08:43:58;21.93;;;17.42;;
22005;SDS011;11167;46.988;15.470;2022-11-15T08:45:59;21.73;;;16.70;;
22005;SDS011;11167;46.988;15.470;2022-11-15T08:48:01;22.32;;;16.57;;
22005;SDS011;11167;46.988;15.470;2022-11-15T08:50:03;24.10;;;17.60;;
22005;SDS011;11167;46.988;15.470;2022-11-15T08:52:04;24.27;;;17.87;;
22005;SDS011;11167;46.988;15.470;2022-11-15T08:54:06;26.17;;;18.40;;
22005;SDS011;11167;46.988;15.470;2022-11-15T08:56:13;24.40;;;18.05;;
22005;SDS011;11167;46.988;15.470;2022-11-15T08:58:11;25.97;;;19.42;;
22005;SDS011;11167;46.988;15.470;2022-11-15T09:00:12;26.07;;;19.05;;
22005;SDS011;11167;46.988;15.470;2022-11-15T09:02:14;28.27;;;20.48;;
22005;SDS011;11167;46.988;15.470;2022-11-15T09:04:16;28.15;;;20.17;;
22005;SDS011;11167;46.988;15.470;2022-11-15T09:06:17;27.70;;;20.62;;
22005;SDS011;11167;46.988;15.470;2022-11-15T09:08:18;27.35;;;19.90;;
22005;SDS011;11167;46.988;15.470;2022-11-15T09:10:20;29.55;;;20.48;;
22005;SDS011;11167;46.988;15.470;2022-11-15T09:12:22;26.55;;;19.75;;
22005;SDS011;11167;46.988;15.470;2022-11-15T09:14:23;27.60;;;20.30;;
22005;SDS011;11167;46.988;15.470;2022-11-15T09:16:24;27.30;;;20.23;;
22005;SDS011;11167;46.988;15.470;2022-11-15T09:18:25;27.93;;;20.68;;
22005;SDS011;11167;46.988;15.470;2022-11-15T09:20:26;26.82;;;19.60;;
22005;SDS011;11167;46.988;15.470;2022-11-15T09:22:27;26.30;;;19.40;;
22005;SDS011;11167;46.988;15.470;2022-11-15T09:24:29;25.08;;;18.48;;
22005;SDS011;11167;46.988;15.470;2022-11-15T09:26:30;27.25;;;19.65;;
22005;SDS011;11167;46.988;15.470;2022-11-15T09:28:31;27.25;;;19.87;;
22005;SDS011;11167;46.988;15.470;2022-11-15T09:30:33;26.40;;;19.57;;
22005;SDS011;11167;46.988;15.470;2022-11-15T09:32:34;26.12;;;18.98;;
22005;SDS011;11167;46.988;15.470;2022-11-15T09:34:36;26.37;;;19.92;;
22005;SDS011;11167;46.988;15.470;2022-11-15T09:36:37;27.90;;;19.67;;
22005;SDS011;11167;46.988;15.470;2022-11-15T09:38:38;27.32;;;19.95;;
22005;SDS011;11167;46.988;15.470;2022-11-15T09:40:39;26.60;;;19.73;;
22005;SDS011;11167;46.988;15.470;2022-11-15T09:43:00;27.20;;;19.67;;
22005;SDS011;11167;46.988;15.470;2022-11-15T09:49:52;27.02;;;19.73;;
22005;SDS011;11167;46.988;15.470;2022-11-15T09:51:56;26.93;;;19.92;;
22005;SDS011;11167;46.988;15.470;2022-11-15T09:54:05;29.02;;;19.87;;
22005;SDS011;11167;46.988;15.470;2022-11-15T09:56:29;28.90;;;19.82;;
22005;SDS011;11167;46.988;15.470;2022-11-15T10:01:18;29.50;;;20.55;;
22005;SDS011;11167;46.988;15.470;2022-11-15T10:05:27;29.63;;;21.05;;
22005;SDS011;11167;46.988;15.470;2022-11-15T10:11:48;27.62;;;19.75;;
22005;SDS011;11167;46.988;15.470;2022-11-15T10:13:50;31.07;;;20.40;;
22005;SDS011;11167;46.988;15.470;2022-11-15T10:15:54;31.20;;;20.90;;
22005;SDS011;11167;46.988;15.470;2022-11-15T10:18:06;31.40;;;21.00;;
22005;SDS011;11167;46.988;15.470;2022-11-15T10:20:15;31.93;;;21.20;;
22005;SDS011;11167;46.988;15.470;2022-11-15T10:26:37;34.40;;;22.40;;
22005;SDS011;11167;46.988;15.470;2022-11-15T10:28:38;33.60;;;22.98;;
22005;SDS011;11167;46.988;15.470;2022-11-15T10:30:40;35.58;;;23.70;;
22005;SDS011;11167;46.988;15.470;2022-11-15T10:34:46;33.60;;;22.55;;
22005;SDS011;11167;46.988;15.470;2022-11-15T10:36:55;35.58;;;23.55;;
22005;SDS011;11167;46.988;15.470;2022-11-15T10:38:58;35.63;;;23.60;;
22005;SDS011;11167;46.988;15.470;2022-11-15T10:41:06;32.95;;;22.90;;
22005;SDS011;11167;46.988;15.470;2022-11-15T10:43:05;35.85;;;24.07;;
22005;SDS011;11167;46.988;15.470;2022-11-15T10:45:25;32.98;;;22.02;;
22005;SDS011;11167;46.988;15.470;2022-11-15T10:47:32;34.80;;;23.05;;
22005;SDS011;11167;46.988;15.470;2022-11-15T10:49:33;30.75;;;22.30;;
22005;SDS011;11167;46.988;15.470;2022-11-15T10:51:37;33.63;;;22.10;;
22005;SDS011;11167;46.988;15.470;2022-11-15T10:53:44;31.62;;;21.87;;
22005;SDS011;11167;46.988;15.470;2022-11-15T10:55:48;30.12;;;20.97;;
22005;SDS011;11167;46.988;15.470;2022-11-15T10:57:53;30.40;;;21.15;;
22005;SDS011;11167;46.988;15.470;2022-11-15T11:00:12;31.10;;;22.42;;
22005;SDS011;11167;46.988;15.470;2022-11-15T11:04:41;32.10;;;20.90;;
22005;SDS011;11167;46.988;15.470;2022-11-15T11:06:53;28.52;;;21.10;;
22005;SDS011;11167;46.988;15.470;2022-11-15T11:09:01;32.90;;;22.13;;
22005;SDS011;11167;46.988;15.470;2022-11-15T11:11:04;29.00;;;20.12;;
22005;SDS011;11167;46.988;15.470;2022-11-15T11:13:14;29.12;;;20.32;;
22005;SDS011;11167;46.988;15.470;2022-11-15T11:15:18;32.03;;;20.35;;
22005;SDS011;11167;46.988;15.470;2022-11-15T11:17:34;31.33;;;20.20;;
22005;SDS011;11167;46.988;15.470;2022-11-15T11:21:55;29.25;;;19.90;;
22005;SDS011;11167;46.988;15.470;2022-11-15T11:24:11;27.73;;;19.50;;
22005;SDS011;11167;46.988;15.470;2022-11-15T11:26:31;32.55;;;21.27;;
22005;SDS011;11167;46.988;15.470;2022-11-15T11:33:13;27.05;;;18.65;;
22005;SDS011;11167;46.988;15.470;2022-11-15T11:39:39;26.60;;;18.65;;
22005;SDS011;11167;46.988;15.470;2022-11-15T11:42:57;25.43;;;17.70;;
22005;SDS011;11167;46.988;15.470;2022-11-15T11:46:38;26.00;;;17.70;;
22005;SDS011;11167;46.988;15.470;2022-11-15T11:49:03;26.30;;;18.45;;
22005;SDS011;11167;46.988;15.470;2022-11-15T11:51:15;24.70;;;18.05;;
22005;SDS011;11167;46.988;15.470;2022-11-15T11:53:25;24.75;;;17.60;;
22005;SDS011;11167;46.988;15.470;2022-11-15T11:55:31;25.00;;;17.10;;
22005;SDS011;11167;46.988;15.470;2022-11-15T11:57:36;22.67;;;16.30;;
22005;SDS011;11167;46.988;15.470;2022-11-15T11:59:48;25.68;;;17.65;;
22005;SDS011;11167;46.988;15.470;2022-11-15T12:01:49;24.70;;;17.87;;
22005;SDS011;11167;46.988;15.470;2022-11-15T12:08:44;24.57;;;15.83;;
22005;SDS011;11167;46.988;15.470;2022-11-15T12:10:50;25.15;;;17.15;;
22005;SDS011;11167;46.988;15.470;2022-11-15T12:13:13;22.80;;;16.75;;
22005;SDS011;11167;46.988;15.470;2022-11-15T12:15:21;21.65;;;16.05;;
22005;SDS011;11167;46.988;15.470;2022-11-15T12:17:25;21.20;;;15.85;;
22005;SDS011;11167;46.988;15.470;2022-11-15T12:19:30;23.12;;;16.05;;
22005;SDS011;11167;46.988;15.470;2022-11-15T12:23:49;22.20;;;16.45;;
22005;SDS011;11167;46.988;15.470;2022-11-15T12:26:04;20.05;;;14.98;;
22005;SDS011;11167;46.988;15.470;2022-11-15T12:30:19;18.77;;;15.15;;
22005;SDS011;11167;46.988;15.470;2022-11-15T12:32:32;20.45;;;15.50;;
22005;SDS011;11167;46.988;15.470;2022-11-15T12:34:40;19.75;;;14.87;;
22005;SDS011;11167;46.988;15.470;2022-11-15T12:36:41;18.42;;;14.75;;
22005;SDS011;11167;46.988;15.470;2022-11-15T12:41:13;19.50;;;14.93;;
22005;SDS011;11167;46.988;15.470;2022-11-15T12:47:35;20.50;;;15.43;;
22005;SDS011;11167;46.988;15.470;2022-11-15T12:53:52;17.80;;;14.73;;
22005;SDS011;11167;46.988;15.470;2022-11-15T12:58:39;16.97;;;13.93;;
22005;SDS011;11167;46.988;15.470;2022-11-15T13:00:46;17.50;;;13.88;;
22005;SDS011;11167;46.988;15.470;2022-11-15T13:02:47;17.05;;;13.40;;
22005;SDS011;11167;46.988;15.470;2022-11-15T13:04:49;17.23;;;14.10;;
22005;SDS011;11167;46.988;15.470;2022-11-15T13:06:53;17.48;;;13.72;;
22005;SDS011;11167;46.988;15.470;2022-11-15T13:09:01;15.90;;;13.08;;
22005;SDS011;11167;46.988;15.470;2022-11-15T13:13:43;17.20;;;12.90;;
22005;SDS011;11167;46.988;15.470;2022-11-15T13:15:53;15.58;;;12.63;;
22005;SDS011;11167;46.988;15.470;2022-11-15T13:17:57;16.65;;;12.82;;
22005;SDS011;11167;46.988;15.470;2022-11-15T13:22:15;16.52;;;12.80;;
22005;SDS011;11167;46.988;15.470;2022-11-15T13:24:37;14.53;;;11.30;;
22005;SDS011;11167;46.988;15.470;2022-11-15T13:26:39;15.03;;;11.73;;